createdAt,value
2023-01-19T00:28:43.220Z,1.6
2023-01-19T00:38:43.595Z,1.7
2023-01-19T00:48:43.779Z,1.8
2023-01-19T00:58:44.733Z,2
2023-01-19T01:18:46.095Z,2
2023-01-19T01:28:46.948Z,2
2023-01-19T01:38:47.993Z,2.1
2023-01-19T01:48:48.883Z,2.1
2023-01-19T01:58:49.224Z,2.1
2023-01-19T02:08:50.088Z,2.1
2023-01-19T02:18:50.454Z,2.1
2023-01-19T02:28:50.613Z,2.2
2023-01-19T02:48:51.423Z,2
2023-01-19T02:58:52.458Z,2.1
2023-01-19T03:18:54.062Z,1.9
2023-01-19T03:28:54.636Z,1.9
2023-01-19T03:38:54.763Z,1.8
2023-01-19T03:58:56.951Z,2
2023-01-19T04:08:56.269Z,1.9
2023-01-19T04:18:56.542Z,1.4
2023-01-19T04:38:57.633Z,0.7
2023-01-19T05:19:00.324Z,0.9
2023-01-19T05:29:00.555Z,0.9
2023-01-19T05:39:00.758Z,0.7
2023-01-19T05:49:00.836Z,0.5
2023-01-19T05:59:01.360Z,0.5
2023-01-19T06:09:02.368Z,0.6
2023-01-19T06:29:04.325Z,0.5
2023-01-19T06:39:04.773Z,0.5
2023-01-19T06:49:05.007Z,0.5
2023-01-19T06:59:05.240Z,0.5
2023-01-19T07:49:07.711Z,0.8
2023-01-19T07:59:08.050Z,0.9
2023-01-19T08:39:10.234Z,1.2
2023-01-19T08:49:10.375Z,1.3
2023-01-19T08:59:12.515Z,1.3
2023-01-19T09:09:10.746Z,1.4
2023-01-19T09:19:11.309Z,1.5
2023-01-19T09:29:12.132Z,1.6
2023-01-19T09:39:12.269Z,1.6
2023-01-19T09:49:13.032Z,1.7
2023-01-19T09:59:13.552Z,1.7
2023-01-19T10:09:13.886Z,1.8
2023-01-19T10:19:14.946Z,1.8
2023-01-19T10:59:18.151Z,2.1
2023-01-19T11:39:20.079Z,2.3
2023-01-19T11:49:20.928Z,2.4
2023-01-19T11:59:21.029Z,2.5
2023-01-19T12:09:21.878Z,2.6
2023-01-19T12:19:22.833Z,2.7
2023-01-19T13:09:24.840Z,2.6
2023-01-19T13:29:26.711Z,2.8
2023-01-19T13:39:26.977Z,2.8
2023-01-19T14:29:32.700Z,3
2023-01-19T14:39:31.479Z,2.9
2023-01-19T14:49:32.355Z,2.8
2023-01-19T15:19:34.004Z,2.7
2023-01-19T16:09:36.154Z,2.3
2023-01-19T17:19:40.007Z,1.9
2023-01-19T17:29:40.794Z,1.8
2023-01-19T17:39:41.612Z,1.8
2023-01-19T17:49:41.901Z,1.7
2023-01-19T18:29:43.298Z,1.4
2023-01-19T18:39:44.054Z,1.4
2023-01-19T18:59:44.430Z,1.3
2023-01-19T19:09:45.240Z,1.4
2023-01-19T19:19:45.812Z,1.4
2023-01-19T19:29:46.455Z,1.4
2023-01-19T19:59:47.936Z,1.4
2023-01-19T20:19:49.267Z,1.4
2023-01-19T20:29:51.769Z,1.5
2023-01-19T20:39:50.258Z,1.5
2023-01-19T20:49:50.682Z,1.5
2023-01-19T20:59:51.367Z,1.5
2023-01-19T21:59:54.142Z,1.5
2023-01-19T22:19:55.627Z,1.5
2023-01-19T22:29:55.943Z,1.4
2023-01-19T22:39:56.113Z,1.4
2023-01-19T22:49:56.628Z,1.4
2023-01-19T22:59:57.527Z,1.3
2023-01-19T23:09:57.760Z,1.3
2023-01-19T23:19:58.412Z,1.3
2023-01-19T23:29:59.211Z,1.3
2023-01-19T23:49:59.581Z,1.2
